createdAt,value
2017-07-17T00:00:55.973Z,17.40
2017-07-17T00:03:23.629Z,17.50
2017-07-17T00:05:50.620Z,17.40
2017-07-17T00:08:29.219Z,17.40
2017-07-17T00:10:56.841Z,17.40
2017-07-17T00:13:23.073Z,17.40
2017-07-17T00:15:49.346Z,17.40
2017-07-17T00:18:16.336Z,17.40
2017-07-17T00:20:42.580Z,17.40
2017-07-17T00:23:08.859Z,17.40
2017-07-17T00:25:35.829Z,17.40
2017-07-17T00:28:02.058Z,17.40
2017-07-17T00:30:29.046Z,17.40
2017-07-17T00:32:55.303Z,17.40
2017-07-17T00:35:21.544Z,17.40
2017-07-17T00:37:47.780Z,17.40
2017-07-17T00:40:14.012Z,17.40
2017-07-17T00:42:40.268Z,17.50
2017-07-17T00:45:14.398Z,17.50
2017-07-17T00:47:41.383Z,17.50
2017-07-17T00:50:07.629Z,17.40
2017-07-17T00:52:33.877Z,17.50
2017-07-17T00:55:00.100Z,17.50
2017-07-17T00:57:26.344Z,17.50
2017-07-17T00:59:52.621Z,17.50
2017-07-17T01:02:19.601Z,17.50
2017-07-17T01:04:45.842Z,17.50
2017-07-17T01:07:12.158Z,17.50
2017-07-17T01:09:39.482Z,17.50
2017-07-17T01:12:05.738Z,17.50
2017-07-17T01:14:32.707Z,17.40
2017-07-17T01:16:58.936Z,17.40
2017-07-17T01:19:25.893Z,17.40
2017-07-17T01:21:52.139Z,17.40
2017-07-17T01:24:18.373Z,17.30
2017-07-17T01:26:44.596Z,17.30
2017-07-17T01:29:10.887Z,17.30
2017-07-17T01:31:37.140Z,17.30
2017-07-17T01:34:04.112Z,17.20
2017-07-17T01:36:30.381Z,17.20
2017-07-17T01:38:56.604Z,17.20
2017-07-17T01:41:22.845Z,17.20
2017-07-17T01:43:49.177Z,17.20
2017-07-17T01:46:16.061Z,17.20
2017-07-17T01:48:42.321Z,17.10
2017-07-17T01:51:09.367Z,17.10
2017-07-17T01:53:35.600Z,17.00
2017-07-17T01:56:02.591Z,17.00
2017-07-17T01:58:28.993Z,17.00
2017-07-17T02:00:56.244Z,17.00
2017-07-17T02:03:22.472Z,17.00
2017-07-17T02:05:48.704Z,17.00
2017-07-17T02:08:14.959Z,16.90
2017-07-17T02:10:42.228Z,16.90
2017-07-17T02:13:08.528Z,16.90
2017-07-17T02:15:34.764Z,16.90
2017-07-17T02:18:01.782Z,16.80
2017-07-17T02:20:28.074Z,16.80
2017-07-17T02:22:54.300Z,16.80
2017-07-17T02:25:20.545Z,16.80
2017-07-17T02:27:47.593Z,16.80
2017-07-17T02:30:14.568Z,16.80
2017-07-17T02:32:41.410Z,16.70
2017-07-17T02:35:08.770Z,16.70
2017-07-17T02:37:35.740Z,16.70
2017-07-17T02:40:02.020Z,16.70
2017-07-17T02:42:28.277Z,16.70
2017-07-17T02:44:55.246Z,16.60
2017-07-17T02:47:21.489Z,16.60
2017-07-17T02:49:47.773Z,16.70
2017-07-17T02:52:14.029Z,16.70
2017-07-17T02:54:40.249Z,16.60
2017-07-17T02:57:06.552Z,16.60
2017-07-17T02:59:32.832Z,16.60
2017-07-17T03:01:59.820Z,16.50
2017-07-17T03:04:26.940Z,16.50
2017-07-17T03:06:53.169Z,16.50
2017-07-17T03:09:19.413Z,16.50
2017-07-17T03:11:50.061Z,16.40
2017-07-17T03:14:17.693Z,16.40
2017-07-17T03:16:43.981Z,16.40
2017-07-17T03:19:11.934Z,16.40
2017-07-17T03:21:38.171Z,16.40
2017-07-17T03:24:20.988Z,16.30
2017-07-17T03:26:47.259Z,16.30
2017-07-17T03:29:13.472Z,16.30
2017-07-17T03:31:39.712Z,16.30
2017-07-17T03:34:05.991Z,16.30
2017-07-17T03:36:32.242Z,16.30
2017-07-17T03:39:00.115Z,16.40
2017-07-17T03:41:26.341Z,16.30
2017-07-17T03:43:52.611Z,16.30
2017-07-17T03:46:20.476Z,16.30
2017-07-17T03:48:46.712Z,16.30
2017-07-17T03:51:13.672Z,16.40
2017-07-17T03:53:40.818Z,16.30
2017-07-17T03:56:07.077Z,16.30
2017-07-17T03:58:33.302Z,16.30
2017-07-17T04:00:59.611Z,16.30
2017-07-17T04:03:26.574Z,16.40
2017-07-17T04:05:53.526Z,16.40
2017-07-17T04:08:21.432Z,16.30
2017-07-17T04:10:48.431Z,16.40
2017-07-17T04:13:15.401Z,16.40
2017-07-17T04:15:47.143Z,16.40
2017-07-17T04:18:13.385Z,16.40
2017-07-17T04:20:40.393Z,16.40
2017-07-17T04:23:06.968Z,16.40
2017-07-17T04:25:33.204Z,16.40
2017-07-17T04:27:59.417Z,16.50
2017-07-17T04:30:25.685Z,16.50
2017-07-17T04:32:52.653Z,16.50
2017-07-17T04:35:19.470Z,16.50
2017-07-17T04:37:45.746Z,16.50
2017-07-17T04:40:11.974Z,16.50
2017-07-17T04:42:39.028Z,16.60
2017-07-17T04:45:05.769Z,16.60
2017-07-17T04:47:32.725Z,16.60
2017-07-17T04:49:59.687Z,16.70
2017-07-17T04:52:26.095Z,16.70
2017-07-17T04:54:53.071Z,16.80
2017-07-17T04:57:26.357Z,16.70
2017-07-17T04:59:53.333Z,16.80
2017-07-17T05:02:19.556Z,16.80
2017-07-17T05:04:46.481Z,16.90
2017-07-17T05:07:12.728Z,16.90
2017-07-17T05:09:38.968Z,16.90
2017-07-17T05:12:05.384Z,17.00
2017-07-17T05:14:33.452Z,17.10
2017-07-17T05:17:01.063Z,17.10
2017-07-17T05:19:27.317Z,17.10
2017-07-17T05:21:53.555Z,17.10
2017-07-17T05:24:19.790Z,17.20
2017-07-17T05:26:46.141Z,17.20
2017-07-17T05:29:12.362Z,17.20
2017-07-17T05:31:38.645Z,17.30
2017-07-17T05:34:05.661Z,17.40
2017-07-17T05:36:38.871Z,17.30
2017-07-17T05:39:05.113Z,17.40
2017-07-17T05:41:32.090Z,17.40
2017-07-17T05:43:58.364Z,17.40
2017-07-17T05:46:24.651Z,17.40
2017-07-17T05:48:50.901Z,17.50
2017-07-17T05:51:17.161Z,17.60
2017-07-17T05:53:43.421Z,17.70
2017-07-17T05:56:09.650Z,17.70
2017-07-17T05:58:35.877Z,17.80
2017-07-17T06:01:02.183Z,17.90
2017-07-17T06:03:28.419Z,18.00
2017-07-17T06:05:54.636Z,18.10
2017-07-17T06:08:20.962Z,18.20
2017-07-17T06:10:47.997Z,18.40
2017-07-17T06:13:14.236Z,18.30
2017-07-17T06:15:41.606Z,18.60
2017-07-17T06:18:09.761Z,18.50
2017-07-17T06:20:36.781Z,18.70
2017-07-17T06:23:03.195Z,18.70
2017-07-17T06:25:29.561Z,18.80
2017-07-17T06:27:55.812Z,18.90
2017-07-17T06:30:22.388Z,18.90
2017-07-17T06:32:49.356Z,19.00
2017-07-17T06:35:15.652Z,18.90
2017-07-17T06:37:41.900Z,18.90
2017-07-17T06:40:08.130Z,18.80
2017-07-17T06:42:34.357Z,18.80
2017-07-17T06:45:00.830Z,18.80
2017-07-17T06:47:27.785Z,18.80
2017-07-17T06:49:54.011Z,18.80
2017-07-17T06:52:21.518Z,18.90
2017-07-17T06:54:47.753Z,18.80
2017-07-17T06:57:14.034Z,18.90
2017-07-17T06:59:40.281Z,18.90
2017-07-17T07:02:07.324Z,19.00
2017-07-17T07:04:33.561Z,19.00
2017-07-17T07:07:00.540Z,19.10
2017-07-17T07:09:28.026Z,19.10
2017-07-17T07:11:55.014Z,19.00
2017-07-17T07:14:22.627Z,19.10
2017-07-17T07:17:01.525Z,19.10
2017-07-17T07:19:30.458Z,19.10
2017-07-17T07:21:58.398Z,19.10
2017-07-17T07:24:25.757Z,19.20
2017-07-17T07:26:53.127Z,19.30
2017-07-17T07:29:19.370Z,19.30
2017-07-17T07:31:45.608Z,19.30
2017-07-17T07:34:12.430Z,19.20
2017-07-17T17:33:48.532Z,20.00
2017-07-17T17:36:15.133Z,20.10
2017-07-17T17:38:42.815Z,20.20
2017-07-17T17:41:10.576Z,20.30
2017-07-17T17:43:36.827Z,20.50
2017-07-17T17:46:03.066Z,20.60
2017-07-17T17:48:29.382Z,20.60
2017-07-17T17:50:56.372Z,20.80
2017-07-17T17:53:22.615Z,20.70
2017-07-17T17:55:49.269Z,20.80
2017-07-17T17:58:15.528Z,20.90
2017-07-17T18:00:41.767Z,21.00
2017-07-17T18:03:09.111Z,21.00
2017-07-17T18:05:35.360Z,21.10
2017-07-17T18:08:01.616Z,21.10
2017-07-17T18:10:27.876Z,21.10
2017-07-17T18:12:54.139Z,21.10
2017-07-17T18:15:20.383Z,21.10
2017-07-17T18:17:46.711Z,21.00
2017-07-17T18:20:12.983Z,21.00
2017-07-17T18:22:39.241Z,20.90
2017-07-17T18:25:05.540Z,20.90
2017-07-17T18:27:31.781Z,20.80
2017-07-17T18:29:58.037Z,20.70
2017-07-17T18:32:24.311Z,20.70
2017-07-17T18:34:52.286Z,20.70
2017-07-17T18:37:19.474Z,20.70
2017-07-17T18:39:47.132Z,20.60
2017-07-17T18:42:14.167Z,20.60
2017-07-17T18:44:41.666Z,20.60
2017-07-17T18:47:08.639Z,20.60
2017-07-17T18:49:35.330Z,20.60
2017-07-17T18:52:02.170Z,20.60
2017-07-17T18:54:28.687Z,20.60
2017-07-17T18:56:55.662Z,20.60
2017-07-17T18:59:21.927Z,20.70
2017-07-17T19:01:49.263Z,20.60
2017-07-17T19:04:16.490Z,20.60
2017-07-17T19:06:44.614Z,20.50
2017-07-17T19:09:11.126Z,20.50
2017-07-17T19:11:38.263Z,20.30
2017-07-17T19:14:04.525Z,20.30
2017-07-17T19:16:30.782Z,20.30
2017-07-17T19:18:57.754Z,20.20
2017-07-17T19:21:24.911Z,20.20
2017-07-17T19:23:51.175Z,20.20
2017-07-17T19:26:18.378Z,20.10
2017-07-17T19:28:44.647Z,20.10
2017-07-17T19:31:11.024Z,20.00
2017-07-17T19:33:39.433Z,20.00
2017-07-17T19:36:06.656Z,19.90
2017-07-17T19:38:37.301Z,19.90
2017-07-17T19:41:13.415Z,19.80
2017-07-17T19:43:41.892Z,19.80
2017-07-17T19:46:11.622Z,19.70
2017-07-17T19:48:39.816Z,19.70
2017-07-17T19:51:06.135Z,19.60
2017-07-17T19:53:33.691Z,19.60
2017-07-17T19:56:01.860Z,19.60
2017-07-17T19:58:28.272Z,19.60
2017-07-17T20:00:54.639Z,19.50
2017-07-17T20:05:57.112Z,19.50
2017-07-17T20:08:23.540Z,19.40
2017-07-17T20:10:49.946Z,19.40
2017-07-17T20:13:17.136Z,19.30
2017-07-17T20:15:44.380Z,19.20
2017-07-17T20:18:10.915Z,19.20
2017-07-17T20:20:37.409Z,19.20
2017-07-17T20:23:03.857Z,19.20
2017-07-17T20:25:30.199Z,19.10
2017-07-17T20:27:57.247Z,19.10
2017-07-17T20:30:23.502Z,19.10
2017-07-17T20:32:50.532Z,19.00
2017-07-17T20:35:16.915Z,19.10
2017-07-17T20:37:56.137Z,19.20
2017-07-17T20:40:23.758Z,19.00
2017-07-17T20:42:50.069Z,19.00
2017-07-17T20:45:16.290Z,18.90
2017-07-17T20:47:42.578Z,18.90
2017-07-17T20:50:08.813Z,18.80
2017-07-17T20:52:35.815Z,18.70
2017-07-17T20:55:02.154Z,18.70
2017-07-17T20:57:28.438Z,18.70
2017-07-17T20:59:54.695Z,18.70
2017-07-17T21:02:21.048Z,18.70
2017-07-17T21:04:47.367Z,18.90
2017-07-17T21:07:14.650Z,18.60
2017-07-17T21:12:13.849Z,18.50
2017-07-17T21:14:40.838Z,18.50
2017-07-17T21:17:07.066Z,18.50
2017-07-17T21:19:33.352Z,18.50
2017-07-17T21:21:59.599Z,18.40
2017-07-17T21:24:25.918Z,18.40
2017-07-17T21:26:52.983Z,18.40
2017-07-17T21:29:21.361Z,18.40
2017-07-17T21:31:48.566Z,18.40
2017-07-17T21:34:16.217Z,18.40
2017-07-17T21:36:42.459Z,18.40
2017-07-17T21:39:09.434Z,18.40
2017-07-17T21:41:35.944Z,18.40
2017-07-17T21:44:02.912Z,18.30
2017-07-17T21:46:30.015Z,18.30
2017-07-17T21:48:57.032Z,18.30
2017-07-17T21:51:23.275Z,18.30
2017-07-17T21:53:49.515Z,18.20
2017-07-17T21:56:16.621Z,18.30
2017-07-17T21:58:43.608Z,18.30
2017-07-17T22:01:09.854Z,18.20
2017-07-17T22:03:36.127Z,18.20
2017-07-17T22:06:02.406Z,18.20
2017-07-17T22:08:29.518Z,18.10
2017-07-17T22:10:56.960Z,18.10
2017-07-17T22:13:23.822Z,18.10
2017-07-17T22:15:50.089Z,18.10
2017-07-17T22:18:16.738Z,18.00
2017-07-17T22:20:42.998Z,18.00
2017-07-17T22:23:09.250Z,18.00
2017-07-17T22:25:35.551Z,18.00
2017-07-17T22:28:01.785Z,18.00
2017-07-17T22:30:28.269Z,17.90
2017-07-17T22:32:54.522Z,17.90
2017-07-17T22:35:20.774Z,17.90
2017-07-17T22:37:47.757Z,17.90
2017-07-17T22:40:14.602Z,17.90
2017-07-17T22:42:41.007Z,17.80
2017-07-17T22:45:07.262Z,17.80
2017-07-17T22:47:34.268Z,17.80
2017-07-17T22:50:00.497Z,17.70
2017-07-17T22:52:26.803Z,17.70
2017-07-17T22:54:53.752Z,17.70
2017-07-17T22:57:19.982Z,17.70
2017-07-17T22:59:46.210Z,17.60
2017-07-17T23:02:13.754Z,17.60
2017-07-17T23:04:40.774Z,17.50
2017-07-17T23:07:07.008Z,17.50
2017-07-17T23:09:33.384Z,17.50
2017-07-17T23:11:59.622Z,17.70
2017-07-17T23:14:26.587Z,17.60
2017-07-17T23:16:52.836Z,17.50
2017-07-17T23:19:19.095Z,17.50
2017-07-17T23:21:45.309Z,17.50
2017-07-17T23:24:11.621Z,17.50
2017-07-17T23:26:37.868Z,17.50
2017-07-17T23:29:04.096Z,17.40
2017-07-17T23:31:30.402Z,17.40
2017-07-17T23:33:56.656Z,17.30
2017-07-17T23:36:23.637Z,17.40
2017-07-17T23:38:49.892Z,17.50
2017-07-17T23:41:16.136Z,17.30
2017-07-17T23:43:44.352Z,17.30
2017-07-17T23:46:11.494Z,17.30
2017-07-17T23:48:38.478Z,17.30
2017-07-17T23:51:04.740Z,17.30
2017-07-17T23:53:31.015Z,17.30
2017-07-17T23:55:58.008Z,17.30
2017-07-17T23:58:24.220Z,17.30
